sensor_id;sensor_type;location;lat;lon;timestamp;pressure;altitude;pressure_sealevel;temperature;humidity
16094;BME280;8151;47.824;12.092;2022-12-28T00:02:16;97153.88;;;4.06;81.50
16094;BME280;8151;47.824;12.092;2022-12-28T00:04:46;97152.81;;;4.09;81.54
16094;BME280;8151;47.824;12.092;2022-12-28T00:07:15;97162.47;;;4.08;81.91
16094;BME280;8151;47.824;12.092;2022-12-28T00:09:43;97164.34;;;4.06;81.49
16094;BME280;8151;47.824;12.092;2022-12-28T00:12:11;97164.59;;;4.03;81.30
16094;BME280;8151;47.824;12.092;2022-12-28T00:14:40;97156.09;;;4.00;81.30
16094;BME280;8151;47.824;12.092;2022-12-28T00:17:12;97160.63;;;3.98;81.40
16094;BME280;8151;47.824;12.092;2022-12-28T00:19:40;97157.75;;;4.01;81.98
16094;BME280;8151;47.824;12.092;2022-12-28T00:22:11;97155.25;;;3.99;82.12
16094;BME280;8151;47.824;12.092;2022-12-28T00:24:39;97163.09;;;3.99;81.93
16094;BME280;8151;47.824;12.092;2022-12-28T00:27:07;97157.13;;;3.97;81.90
16094;BME280;8151;47.824;12.092;2022-12-28T00:29:37;97165.63;;;4.01;81.52
16094;BME280;8151;47.824;12.092;2022-12-28T00:32:05;97162.56;;;4.07;82.14
16094;BME280;8151;47.824;12.092;2022-12-28T00:34:34;97159.84;;;4.08;81.75
16094;BME280;8151;47.824;12.092;2022-12-28T00:37:02;97156.84;;;4.02;81.83
16094;BME280;8151;47.824;12.092;2022-12-28T00:39:40;97152.84;;;3.96;81.63
16094;BME280;8151;47.824;12.092;2022-12-28T00:42:10;97148.06;;;3.90;82.13
16094;BME280;8151;47.824;12.092;2022-12-28T00:44:38;97152.97;;;3.82;82.31
16094;BME280;8151;47.824;12.092;2022-12-28T00:47:07;97154.34;;;3.74;81.94
16094;BME280;8151;47.824;12.092;2022-12-28T00:49:35;97152.03;;;3.70;82.46
16094;BME280;8151;47.824;12.092;2022-12-28T00:52:04;97161.38;;;3.61;82.69
16094;BME280;8151;47.824;12.092;2022-12-28T00:54:32;97165.16;;;3.57;82.32
16094;BME280;8151;47.824;12.092;2022-12-28T00:57:02;97163.66;;;3.40;82.55
16094;BME280;8151;47.824;12.092;2022-12-28T00:59:31;97169.53;;;3.18;82.58
16094;BME280;8151;47.824;12.092;2022-12-28T01:01:59;97168.94;;;3.00;83.22
16094;BME280;8151;47.824;12.092;2022-12-28T01:04:28;97166.56;;;2.97;83.36
16094;BME280;8151;47.824;12.092;2022-12-28T01:06:56;97152.53;;;2.98;83.26
16094;BME280;8151;47.824;12.092;2022-12-28T01:09:25;97169.06;;;2.99;82.96
16094;BME280;8151;47.824;12.092;2022-12-28T01:11:53;97170.09;;;2.96;83.01
16094;BME280;8151;47.824;12.092;2022-12-28T01:14:23;97163.06;;;2.96;83.06
16094;BME280;8151;47.824;12.092;2022-12-28T01:16:52;97157.06;;;3.09;82.62
16094;BME280;8151;47.824;12.092;2022-12-28T01:19:21;97149.53;;;3.17;82.24
16094;BME280;8151;47.824;12.092;2022-12-28T01:21:50;97154.56;;;3.20;81.93
16094;BME280;8151;47.824;12.092;2022-12-28T01:24:19;97148.91;;;3.13;81.94
16094;BME280;8151;47.824;12.092;2022-12-28T01:26:48;97148.56;;;3.05;82.22
16094;BME280;8151;47.824;12.092;2022-12-28T01:29:17;97142.06;;;2.98;82.15
16094;BME280;8151;47.824;12.092;2022-12-28T01:31:46;97141.56;;;2.93;81.92
16094;BME280;8151;47.824;12.092;2022-12-28T01:34:15;97143.72;;;2.86;82.00
16094;BME280;8151;47.824;12.092;2022-12-28T01:36:43;97140.47;;;2.83;82.35
16094;BME280;8151;47.824;12.092;2022-12-28T01:39:12;97143.81;;;2.85;82.08
16094;BME280;8151;47.824;12.092;2022-12-28T01:41:41;97136.84;;;2.85;82.26
16094;BME280;8151;47.824;12.092;2022-12-28T01:44:41;97137.66;;;2.86;82.05
16094;BME280;8151;47.824;12.092;2022-12-28T01:47:14;97136.84;;;2.85;82.06
16094;BME280;8151;47.824;12.092;2022-12-28T01:49:48;97126.91;;;2.90;82.02
16094;BME280;8151;47.824;12.092;2022-12-28T01:52:21;97131.09;;;2.93;81.86
16094;BME280;8151;47.824;12.092;2022-12-28T01:54:53;97137.06;;;2.95;81.52
16094;BME280;8151;47.824;12.092;2022-12-28T01:57:26;97127.25;;;2.99;81.41
16094;BME280;8151;47.824;12.092;2022-12-28T02:00:00;97126.81;;;3.05;81.84
16094;BME280;8151;47.824;12.092;2022-12-28T02:02:31;97117.84;;;3.09;81.68
16094;BME280;8151;47.824;12.092;2022-12-28T02:05:01;97127.97;;;3.13;81.43
16094;BME280;8151;47.824;12.092;2022-12-28T02:07:35;97123.56;;;3.14;81.57
16094;BME280;8151;47.824;12.092;2022-12-28T02:10:06;97120.03;;;3.15;81.52
16094;BME280;8151;47.824;12.092;2022-12-28T02:12:55;97116.38;;;3.18;81.60
16094;BME280;8151;47.824;12.092;2022-12-28T02:15:25;97109.25;;;3.20;81.80
16094;BME280;8151;47.824;12.092;2022-12-28T02:17:56;97114.47;;;3.20;81.86
16094;BME280;8151;47.824;12.092;2022-12-28T02:20:31;97107.38;;;3.22;81.97
16094;BME280;8151;47.824;12.092;2022-12-28T02:23:23;97097.75;;;3.22;81.85
16094;BME280;8151;47.824;12.092;2022-12-28T02:26:19;97087.31;;;3.22;82.13
16094;BME280;8151;47.824;12.092;2022-12-28T02:29:20;97083.72;;;3.23;82.16
16094;BME280;8151;47.824;12.092;2022-12-28T02:31:57;97085.41;;;3.24;81.95
16094;BME280;8151;47.824;12.092;2022-12-28T02:34:31;97080.28;;;3.23;82.18
16094;BME280;8151;47.824;12.092;2022-12-28T02:37:06;97078.50;;;3.23;82.15
16094;BME280;8151;47.824;12.092;2022-12-28T02:39:40;97058.53;;;3.22;82.30
16094;BME280;8151;47.824;12.092;2022-12-28T02:42:12;97061.88;;;3.24;82.41
16094;BME280;8151;47.824;12.092;2022-12-28T02:44:42;97045.34;;;3.24;82.43
16094;BME280;8151;47.824;12.092;2022-12-28T02:47:28;97058.31;;;3.25;82.26
16094;BME280;8151;47.824;12.092;2022-12-28T02:50:15;97047.03;;;3.25;82.30
16094;BME280;8151;47.824;12.092;2022-12-28T02:53:09;97045.03;;;3.28;82.53
16094;BME280;8151;47.824;12.092;2022-12-28T02:55:53;97043.97;;;3.31;82.32
16094;BME280;8151;47.824;12.092;2022-12-28T03:01:52;97044.59;;;3.34;82.37
16094;BME280;8151;47.824;12.092;2022-12-28T03:04:27;97034.13;;;3.34;82.61
16094;BME280;8151;47.824;12.092;2022-12-28T03:07:07;97036.75;;;3.34;82.35
16094;BME280;8151;47.824;12.092;2022-12-28T03:10:04;97030.91;;;3.31;82.49
16094;BME280;8151;47.824;12.092;2022-12-28T03:12:40;97025.91;;;3.28;82.71
16094;BME280;8151;47.824;12.092;2022-12-28T03:15:18;97033.84;;;3.26;82.60
16094;BME280;8151;47.824;12.092;2022-12-28T03:18:02;97043.47;;;3.26;82.73
16094;BME280;8151;47.824;12.092;2022-12-28T03:20:51;97027.66;;;3.27;82.57
16094;BME280;8151;47.824;12.092;2022-12-28T03:23:41;97025.75;;;3.29;82.75
16094;BME280;8151;47.824;12.092;2022-12-28T03:26:28;97023.28;;;3.28;82.70
16094;BME280;8151;47.824;12.092;2022-12-28T03:29:19;97026.81;;;3.27;82.69
16094;BME280;8151;47.824;12.092;2022-12-28T03:32:08;97026.91;;;3.25;83.05
16094;BME280;8151;47.824;12.092;2022-12-28T03:34:38;97018.16;;;3.26;82.67
16094;BME280;8151;47.824;12.092;2022-12-28T03:37:11;97013.66;;;3.28;82.60
16094;BME280;8151;47.824;12.092;2022-12-28T03:39:46;97008.41;;;3.28;82.62
16094;BME280;8151;47.824;12.092;2022-12-28T03:42:17;96998.78;;;3.29;82.86
16094;BME280;8151;47.824;12.092;2022-12-28T03:45:11;96998.78;;;3.29;82.99
16094;BME280;8151;47.824;12.092;2022-12-28T03:48:04;96996.16;;;3.29;82.80
16094;BME280;8151;47.824;12.092;2022-12-28T03:50:36;96983.91;;;3.29;82.72
16094;BME280;8151;47.824;12.092;2022-12-28T03:53:06;96984.53;;;3.33;82.98
16094;BME280;8151;47.824;12.092;2022-12-28T03:55:35;96989.56;;;3.36;83.03
16094;BME280;8151;47.824;12.092;2022-12-28T03:58:04;96982.44;;;3.38;83.12
16094;BME280;8151;47.824;12.092;2022-12-28T04:00:33;96981.63;;;3.38;82.79
16094;BME280;8151;47.824;12.092;2022-12-28T04:03:02;96984.25;;;3.38;83.06
16094;BME280;8151;47.824;12.092;2022-12-28T04:05:30;96984.97;;;3.40;83.11
16094;BME280;8151;47.824;12.092;2022-12-28T04:08:00;96989.34;;;3.39;83.23
16094;BME280;8151;47.824;12.092;2022-12-28T04:10:28;96976.97;;;3.41;83.14
16094;BME280;8151;47.824;12.092;2022-12-28T04:12:56;96972.59;;;3.42;83.11
16094;BME280;8151;47.824;12.092;2022-12-28T04:15:25;96964.75;;;3.42;83.20
16094;BME280;8151;47.824;12.092;2022-12-28T04:17:53;96983.91;;;3.42;83.37
16094;BME280;8151;47.824;12.092;2022-12-28T04:20:22;96959.53;;;3.42;83.43
16094;BME280;8151;47.824;12.092;2022-12-28T04:22:51;96952.50;;;3.42;83.16
16094;BME280;8151;47.824;12.092;2022-12-28T04:25:21;96963.69;;;3.44;83.45
16094;BME280;8151;47.824;12.092;2022-12-28T04:27:50;96951.44;;;3.45;83.47
16094;BME280;8151;47.824;12.092;2022-12-28T04:30:18;96946.94;;;3.47;83.30
16094;BME280;8151;47.824;12.092;2022-12-28T04:32:47;96947.78;;;3.47;83.16
16094;BME280;8151;47.824;12.092;2022-12-28T04:35:15;96946.94;;;3.47;83.24
16094;BME280;8151;47.824;12.092;2022-12-28T04:37:44;96959.19;;;3.46;83.37
16094;BME280;8151;47.824;12.092;2022-12-28T04:40:12;96956.56;;;3.46;83.23
16094;BME280;8151;47.824;12.092;2022-12-28T04:42:42;96944.31;;;3.47;83.14
16094;BME280;8151;47.824;12.092;2022-12-28T04:45:10;96948.63;;;3.48;83.65
16094;BME280;8151;47.824;12.092;2022-12-28T04:47:46;96960.75;;;3.49;83.07
16094;BME280;8151;47.824;12.092;2022-12-28T04:50:14;96954.56;;;3.50;83.72
16094;BME280;8151;47.824;12.092;2022-12-28T04:52:43;96950.19;;;3.50;83.56
16094;BME280;8151;47.824;12.092;2022-12-28T04:55:11;96951.97;;;3.50;83.57
16094;BME280;8151;47.824;12.092;2022-12-28T04:58:00;96946.00;;;3.48;83.41
16094;BME280;8151;47.824;12.092;2022-12-28T05:00:30;96952.31;;;3.45;83.38
16094;BME280;8151;47.824;12.092;2022-12-28T05:02:59;96934.81;;;3.46;83.71
16094;BME280;8151;47.824;12.092;2022-12-28T05:05:28;96930.75;;;3.42;83.94
16094;BME280;8151;47.824;12.092;2022-12-28T05:07:59;96938.72;;;3.40;83.83
16094;BME280;8151;47.824;12.092;2022-12-28T05:10:28;96923.13;;;3.39;83.54
16094;BME280;8151;47.824;12.092;2022-12-28T05:12:57;96929.06;;;3.41;83.80
16094;BME280;8151;47.824;12.092;2022-12-28T05:15:26;96934.31;;;3.41;83.66
16094;BME280;8151;47.824;12.092;2022-12-28T05:17:55;96933.47;;;3.40;83.62
16094;BME280;8151;47.824;12.092;2022-12-28T05:20:23;96936.09;;;3.40;83.49
16094;BME280;8151;47.824;12.092;2022-12-28T05:22:52;96931.59;;;3.42;83.65
16094;BME280;8151;47.824;12.092;2022-12-28T05:25:20;96935.88;;;3.43;83.61
16094;BME280;8151;47.824;12.092;2022-12-28T05:27:48;96947.28;;;3.42;83.73
16094;BME280;8151;47.824;12.092;2022-12-28T05:30:17;96941.31;;;3.40;83.82
16094;BME280;8151;47.824;12.092;2022-12-28T05:32:47;96951.88;;;3.39;83.55
16094;BME280;8151;47.824;12.092;2022-12-28T05:35:15;96936.19;;;3.39;83.62
16094;BME280;8151;47.824;12.092;2022-12-28T05:37:44;96945.00;;;3.38;83.71
16094;BME280;8151;47.824;12.092;2022-12-28T05:40:12;96937.25;;;3.36;83.66
16094;BME280;8151;47.824;12.092;2022-12-28T05:42:41;96922.63;;;3.33;83.64
16094;BME280;8151;47.824;12.092;2022-12-28T05:45:17;96932.47;;;3.30;83.72
16094;BME280;8151;47.824;12.092;2022-12-28T05:47:47;96923.75;;;3.29;83.88
16094;BME280;8151;47.824;12.092;2022-12-28T05:50:16;96920.44;;;3.27;83.76
16094;BME280;8151;47.824;12.092;2022-12-28T05:52:45;96921.38;;;3.26;83.87
16094;BME280;8151;47.824;12.092;2022-12-28T05:55:13;96931.84;;;3.26;83.71
16094;BME280;8151;47.824;12.092;2022-12-28T05:57:41;96939.91;;;3.23;83.72
16094;BME280;8151;47.824;12.092;2022-12-28T06:00:10;96924.22;;;3.23;83.42
16094;BME280;8151;47.824;12.092;2022-12-28T06:02:39;96919.94;;;3.22;83.88
16094;BME280;8151;47.824;12.092;2022-12-28T06:05:09;96918.25;;;3.21;83.81
16094;BME280;8151;47.824;12.092;2022-12-28T06:07:39;96897.34;;;3.21;83.87
16094;BME280;8151;47.824;12.092;2022-12-28T06:10:08;96898.16;;;3.22;83.50
16094;BME280;8151;47.824;12.092;2022-12-28T06:12:36;96906.88;;;3.22;83.53
16094;BME280;8151;47.824;12.092;2022-12-28T06:15:06;96891.16;;;3.22;83.37
16094;BME280;8151;47.824;12.092;2022-12-28T06:17:34;96903.38;;;3.22;83.49
16094;BME280;8151;47.824;12.092;2022-12-28T06:20:03;96899.13;;;3.21;83.80
16094;BME280;8151;47.824;12.092;2022-12-28T06:22:33;96900.78;;;3.22;83.48
16094;BME280;8151;47.824;12.092;2022-12-28T06:25:03;96904.25;;;3.22;83.62
16094;BME280;8151;47.824;12.092;2022-12-28T06:27:31;96913.75;;;3.23;83.52
16094;BME280;8151;47.824;12.092;2022-12-28T06:29:59;96899.00;;;3.22;83.66
16094;BME280;8151;47.824;12.092;2022-12-28T06:32:28;96907.59;;;3.24;83.69
16094;BME280;8151;47.824;12.092;2022-12-28T06:34:56;96905.59;;;3.28;83.55
16094;BME280;8151;47.824;12.092;2022-12-28T06:37:25;96904.63;;;3.29;83.59
16094;BME280;8151;47.824;12.092;2022-12-28T06:39:54;96910.69;;;3.29;83.73
16094;BME280;8151;47.824;12.092;2022-12-28T06:42:23;96922.63;;;3.33;83.54
16094;BME280;8151;47.824;12.092;2022-12-28T06:44:51;96919.16;;;3.33;83.50
16094;BME280;8151;47.824;12.092;2022-12-28T06:47:19;96909.75;;;3.30;83.76
16094;BME280;8151;47.824;12.092;2022-12-28T06:49:48;96914.03;;;3.31;83.45
16094;BME280;8151;47.824;12.092;2022-12-28T06:52:16;96909.66;;;3.32;83.59
16094;BME280;8151;47.824;12.092;2022-12-28T06:54:45;96903.56;;;3.31;83.65
16094;BME280;8151;47.824;12.092;2022-12-28T06:57:14;96904.41;;;3.32;83.24
16094;BME280;8151;47.824;12.092;2022-12-28T06:59:43;96912.16;;;3.33;83.45
16094;BME280;8151;47.824;12.092;2022-12-28T07:02:11;96914.53;;;3.37;83.31
16094;BME280;8151;47.824;12.092;2022-12-28T07:04:40;96932.75;;;3.38;83.59
16094;BME280;8151;47.824;12.092;2022-12-28T07:07:08;96933.56;;;3.39;83.34
16094;BME280;8151;47.824;12.092;2022-12-28T07:09:37;96937.03;;;3.39;83.68
16094;BME280;8151;47.824;12.092;2022-12-28T07:12:05;96931.06;;;3.37;83.37
16094;BME280;8151;47.824;12.092;2022-12-28T07:14:35;96915.28;;;3.39;83.49
16094;BME280;8151;47.824;12.092;2022-12-28T07:17:03;96923.84;;;3.41;83.32
16094;BME280;8151;47.824;12.092;2022-12-28T07:19:32;96940.25;;;3.43;83.62
16094;BME280;8151;47.824;12.092;2022-12-28T07:22:00;96930.53;;;3.45;83.48
16094;BME280;8151;47.824;12.092;2022-12-28T07:24:29;96920.91;;;3.45;83.29
16094;BME280;8151;47.824;12.092;2022-12-28T07:26:57;96941.59;;;3.48;83.40
16094;BME280;8151;47.824;12.092;2022-12-28T07:29:26;96941.50;;;3.50;83.37
16094;BME280;8151;47.824;12.092;2022-12-28T07:31:56;96937.09;;;3.50;83.49
16094;BME280;8151;47.824;12.092;2022-12-28T07:34:24;96951.88;;;3.51;83.29
16094;BME280;8151;47.824;12.092;2022-12-28T07:36:53;96944.94;;;3.50;83.18
16094;BME280;8151;47.824;12.092;2022-12-28T07:39:22;96941.41;;;3.51;83.47
16094;BME280;8151;47.824;12.092;2022-12-28T07:41:50;96942.13;;;3.53;83.68
16094;BME280;8151;47.824;12.092;2022-12-28T07:44:18;96932.38;;;3.55;83.36
16094;BME280;8151;47.824;12.092;2022-12-28T07:46:47;96938.44;;;3.56;83.35
16094;BME280;8151;47.824;12.092;2022-12-28T07:49:17;96927.16;;;3.55;83.38
16094;BME280;8151;47.824;12.092;2022-12-28T07:51:45;96936.66;;;3.57;83.45
16094;BME280;8151;47.824;12.092;2022-12-28T07:54:15;96939.16;;;3.58;83.55
16094;BME280;8151;47.824;12.092;2022-12-28T07:56:43;96939.97;;;3.59;83.46
16094;BME280;8151;47.824;12.092;2022-12-28T07:59:12;96934.66;;;3.60;83.27
16094;BME280;8151;47.824;12.092;2022-12-28T08:01:40;96926.69;;;3.62;83.61
16094;BME280;8151;47.824;12.092;2022-12-28T08:04:12;96940.50;;;3.64;83.25
16094;BME280;8151;47.824;12.092;2022-12-28T08:06:43;96944.81;;;3.65;83.39
16094;BME280;8151;47.824;12.092;2022-12-28T08:09:13;96957.03;;;3.64;83.17
16094;BME280;8151;47.824;12.092;2022-12-28T08:11:43;96938.50;;;3.67;83.34
16094;BME280;8151;47.824;12.092;2022-12-28T08:14:12;96930.44;;;3.70;82.89
16094;BME280;8151;47.824;12.092;2022-12-28T08:16:42;96936.25;;;3.74;83.05
16094;BME280;8151;47.824;12.092;2022-12-28T08:19:11;96947.34;;;3.78;83.17
16094;BME280;8151;47.824;12.092;2022-12-28T08:21:43;96939.19;;;3.82;82.93
16094;BME280;8151;47.824;12.092;2022-12-28T08:24:14;96945.03;;;3.86;82.74
16094;BME280;8151;47.824;12.092;2022-12-28T08:26:44;96944.78;;;3.89;83.08
16094;BME280;8151;47.824;12.092;2022-12-28T08:29:15;96934.09;;;3.92;82.81
16094;BME280;8151;47.824;12.092;2022-12-28T08:31:44;96941.81;;;3.93;82.92
16094;BME280;8151;47.824;12.092;2022-12-28T08:34:14;96939.00;;;3.97;82.70
16094;BME280;8151;47.824;12.092;2022-12-28T08:36:44;96931.63;;;4.02;82.74
16094;BME280;8151;47.824;12.092;2022-12-28T08:39:12;96935.59;;;4.07;82.49
16094;BME280;8151;47.824;12.092;2022-12-28T08:41:41;96945.00;;;4.10;82.72
16094;BME280;8151;47.824;12.092;2022-12-28T08:44:10;96933.69;;;4.09;82.73
16094;BME280;8151;47.824;12.092;2022-12-28T08:46:38;96940.25;;;4.15;82.63
16094;BME280;8151;47.824;12.092;2022-12-28T08:49:07;96935.84;;;4.16;82.58
16094;BME280;8151;47.824;12.092;2022-12-28T08:51:37;96946.22;;;4.17;82.41
16094;BME280;8151;47.824;12.092;2022-12-28T08:54:10;96936.69;;;4.16;82.38
16094;BME280;8151;47.824;12.092;2022-12-28T08:56:41;96945.34;;;4.17;82.83
16094;BME280;8151;47.824;12.092;2022-12-28T08:59:12;96945.34;;;4.17;82.46
16094;BME280;8151;47.824;12.092;2022-12-28T09:01:41;96946.94;;;4.19;82.87
16094;BME280;8151;47.824;12.092;2022-12-28T09:04:12;96942.31;;;4.23;82.85
16094;BME280;8151;47.824;12.092;2022-12-28T09:06:41;96942.88;;;4.26;82.39
16094;BME280;8151;47.824;12.092;2022-12-28T09:09:14;96943.59;;;4.28;82.45
16094;BME280;8151;47.824;12.092;2022-12-28T09:11:42;96940.78;;;4.31;82.53
16094;BME280;8151;47.824;12.092;2022-12-28T09:14:12;96937.06;;;4.34;82.61
16094;BME280;8151;47.824;12.092;2022-12-28T09:16:50;96921.13;;;4.37;82.34
16094;BME280;8151;47.824;12.092;2022-12-28T09:19:19;96924.38;;;4.41;82.04
16094;BME280;8151;47.824;12.092;2022-12-28T09:21:47;96913.63;;;4.44;82.52
16094;BME280;8151;47.824;12.092;2022-12-28T09:24:20;96919.47;;;4.47;82.10
16094;BME280;8151;47.824;12.092;2022-12-28T09:26:49;96911.28;;;4.52;81.91
16094;BME280;8151;47.824;12.092;2022-12-28T09:29:19;96911.75;;;4.57;81.78
16094;BME280;8151;47.824;12.092;2022-12-28T09:31:47;96909.75;;;4.61;82.16
16094;BME280;8151;47.824;12.092;2022-12-28T09:34:16;96923.34;;;4.66;82.00
16094;BME280;8151;47.824;12.092;2022-12-28T09:37:04;96908.22;;;4.69;81.73
16094;BME280;8151;47.824;12.092;2022-12-28T09:39:34;96901.88;;;4.72;81.89
16094;BME280;8151;47.824;12.092;2022-12-28T09:42:05;96899.16;;;4.73;81.91
16094;BME280;8151;47.824;12.092;2022-12-28T09:44:44;96883.16;;;4.77;81.66
16094;BME280;8151;47.824;12.092;2022-12-28T09:47:22;96880.31;;;4.80;82.19
16094;BME280;8151;47.824;12.092;2022-12-28T09:49:59;96886.38;;;4.80;81.69
16094;BME280;8151;47.824;12.092;2022-12-28T09:52:33;96881.03;;;4.82;81.87
16094;BME280;8151;47.824;12.092;2022-12-28T09:55:10;96873.50;;;4.88;82.19
16094;BME280;8151;47.824;12.092;2022-12-28T09:57:42;96869.13;;;4.89;81.48
16094;BME280;8151;47.824;12.092;2022-12-28T10:00:17;96864.00;;;4.87;82.01
16094;BME280;8151;47.824;12.092;2022-12-28T10:02:49;96856.59;;;4.92;81.85
16094;BME280;8151;47.824;12.092;2022-12-28T10:05:20;96846.78;;;5.06;81.81
16094;BME280;8151;47.824;12.092;2022-12-28T10:07:52;96854.53;;;5.19;81.51
16094;BME280;8151;47.824;12.092;2022-12-28T10:10:22;96844.13;;;5.28;80.77
16094;BME280;8151;47.824;12.092;2022-12-28T10:12:51;96844.94;;;5.40;80.74
16094;BME280;8151;47.824;12.092;2022-12-28T10:15:21;96841.69;;;5.48;80.72
16094;BME280;8151;47.824;12.092;2022-12-28T10:17:54;96817.44;;;5.56;80.62
16094;BME280;8151;47.824;12.092;2022-12-28T10:20:22;96815.41;;;5.59;80.20
16094;BME280;8151;47.824;12.092;2022-12-28T10:22:52;96810.72;;;5.63;80.63
16094;BME280;8151;47.824;12.092;2022-12-28T10:25:25;96809.28;;;5.70;80.06
16094;BME280;8151;47.824;12.092;2022-12-28T10:27:54;96811.75;;;5.71;79.76
16094;BME280;8151;47.824;12.092;2022-12-28T10:30:24;96819.38;;;5.75;79.86
16094;BME280;8151;47.824;12.092;2022-12-28T10:32:55;96800.88;;;5.76;80.28
16094;BME280;8151;47.824;12.092;2022-12-28T10:35:32;96801.72;;;5.77;80.29
16094;BME280;8151;47.824;12.092;2022-12-28T10:38:06;96795.47;;;5.78;79.76
16094;BME280;8151;47.824;12.092;2022-12-28T10:40:55;96778.78;;;5.79;79.52
16094;BME280;8151;47.824;12.092;2022-12-28T10:43:28;96783.09;;;5.80;79.45
16094;BME280;8151;47.824;12.092;2022-12-28T10:45:58;96791.91;;;5.79;79.84
16094;BME280;8151;47.824;12.092;2022-12-28T10:48:30;96778.66;;;5.80;80.01
16094;BME280;8151;47.824;12.092;2022-12-28T10:51:10;96782.81;;;5.83;79.77
16094;BME280;8151;47.824;12.092;2022-12-28T10:53:42;96782.81;;;5.83;79.29
16094;BME280;8151;47.824;12.092;2022-12-28T10:56:25;96777.09;;;5.78;79.57
16094;BME280;8151;47.824;12.092;2022-12-28T10:59:17;96763.28;;;5.76;79.62
16094;BME280;8151;47.824;12.092;2022-12-28T11:01:46;96756.38;;;5.75;79.93
16094;BME280;8151;47.824;12.092;2022-12-28T11:04:16;96755.78;;;5.71;79.84
16094;BME280;8151;47.824;12.092;2022-12-28T11:06:53;96753.97;;;5.71;79.11
16094;BME280;8151;47.824;12.092;2022-12-28T11:09:24;96753.97;;;5.71;79.64
16094;BME280;8151;47.824;12.092;2022-12-28T11:11:56;96744.88;;;5.76;79.34
16094;BME280;8151;47.824;12.092;2022-12-28T11:14:43;96738.44;;;5.80;79.00
16094;BME280;8151;47.824;12.092;2022-12-28T11:17:16;96744.13;;;5.85;79.46
16094;BME280;8151;47.824;12.092;2022-12-28T11:19:46;96737.53;;;5.90;79.16
16094;BME280;8151;47.824;12.092;2022-12-28T11:22:20;96735.25;;;5.97;78.78
16094;BME280;8151;47.824;12.092;2022-12-28T11:24:49;96738.09;;;5.94;78.90
16094;BME280;8151;47.824;12.092;2022-12-28T11:27:21;96733.56;;;5.96;78.85
16094;BME280;8151;47.824;12.092;2022-12-28T11:29:52;96729.59;;;6.02;78.64
16094;BME280;8151;47.824;12.092;2022-12-28T11:32:24;96726.16;;;6.01;78.87
16094;BME280;8151;47.824;12.092;2022-12-28T11:34:54;96735.97;;;5.99;78.53
16094;BME280;8151;47.824;12.092;2022-12-28T11:37:26;96726.91;;;5.92;78.57
16094;BME280;8151;47.824;12.092;2022-12-28T11:39:54;96721.88;;;5.89;78.54
16094;BME280;8151;47.824;12.092;2022-12-28T11:42:56;96721.88;;;5.89;78.34
16094;BME280;8151;47.824;12.092;2022-12-28T11:45:51;96709.47;;;5.91;78.06
16094;BME280;8151;47.824;12.092;2022-12-28T11:48:46;96711.63;;;5.97;78.31
16094;BME280;8151;47.824;12.092;2022-12-28T11:51:17;96714.25;;;5.97;78.24
16094;BME280;8151;47.824;12.092;2022-12-28T11:53:54;96707.19;;;5.98;78.46
16094;BME280;8151;47.824;12.092;2022-12-28T11:56:26;96702.88;;;5.97;78.42
16094;BME280;8151;47.824;12.092;2022-12-28T11:59:10;96706.09;;;6.00;78.07
16094;BME280;8151;47.824;12.092;2022-12-28T12:01:52;96707.94;;;6.09;78.03
16094;BME280;8151;47.824;12.092;2022-12-28T12:04:39;96700.78;;;6.21;77.25
16094;BME280;8151;47.824;12.092;2022-12-28T12:07:18;96696.25;;;6.33;77.20
16094;BME280;8151;47.824;12.092;2022-12-28T12:10:28;96691.72;;;6.45;77.00
16094;BME280;8151;47.824;12.092;2022-12-28T12:12:57;96694.91;;;6.48;77.14
16094;BME280;8151;47.824;12.092;2022-12-28T12:15:33;96693.00;;;6.50;76.96
16094;BME280;8151;47.824;12.092;2022-12-28T12:18:06;96680.81;;;6.49;76.64
16094;BME280;8151;47.824;12.092;2022-12-28T12:20:49;96681.78;;;6.48;76.78
16094;BME280;8151;47.824;12.092;2022-12-28T12:23:26;96680.94;;;6.48;77.03
16094;BME280;8151;47.824;12.092;2022-12-28T12:25:57;96676.41;;;6.50;76.53
16094;BME280;8151;47.824;12.092;2022-12-28T12:28:36;96672.66;;;6.53;76.88
16094;BME280;8151;47.824;12.092;2022-12-28T12:31:12;96672.41;;;6.56;76.33
16094;BME280;8151;47.824;12.092;2022-12-28T12:33:46;96666.72;;;6.60;76.50
16094;BME280;8151;47.824;12.092;2022-12-28T12:36:51;96660.66;;;6.69;76.02
16094;BME280;8151;47.824;12.092;2022-12-28T12:39:34;96654.56;;;6.79;75.78
16094;BME280;8151;47.824;12.092;2022-12-28T12:42:12;96646.13;;;6.95;75.58
16094;BME280;8151;47.824;12.092;2022-12-28T12:44:50;96644.59;;;7.12;75.20
16094;BME280;8151;47.824;12.092;2022-12-28T12:47:46;96642.88;;;7.40;74.41
16094;BME280;8151;47.824;12.092;2022-12-28T12:50:31;96633.94;;;7.80;73.96
16094;BME280;8151;47.824;12.092;2022-12-28T12:53:04;96637.22;;;8.19;73.37
16094;BME280;8151;47.824;12.092;2022-12-28T12:55:45;96623.97;;;8.57;72.66
16094;BME280;8151;47.824;12.092;2022-12-28T12:58:22;96627.25;;;8.86;72.11
16094;BME280;8151;47.824;12.092;2022-12-28T13:01:08;96622.34;;;9.10;71.69
16094;BME280;8151;47.824;12.092;2022-12-28T13:03:44;96606.94;;;9.23;72.03
16094;BME280;8151;47.824;12.092;2022-12-28T13:06:15;96607.13;;;9.30;71.44
16094;BME280;8151;47.824;12.092;2022-12-28T13:08:46;96603.66;;;9.29;71.46
16094;BME280;8151;47.824;12.092;2022-12-28T13:11:17;96594.47;;;9.33;72.20
16094;BME280;8151;47.824;12.092;2022-12-28T13:13:47;96587.56;;;9.40;71.86
16094;BME280;8151;47.824;12.092;2022-12-28T13:16:19;96585.75;;;9.41;71.67
16094;BME280;8151;47.824;12.092;2022-12-28T13:18:54;96578.53;;;9.51;71.55
16094;BME280;8151;47.824;12.092;2022-12-28T13:21:23;96583.09;;;9.67;71.08
16094;BME280;8151;47.824;12.092;2022-12-28T13:23:52;96575.38;;;9.74;70.81
16094;BME280;8151;47.824;12.092;2022-12-28T13:26:25;96570.25;;;9.72;70.65
16094;BME280;8151;47.824;12.092;2022-12-28T13:28:57;96579.63;;;9.66;70.50
16094;BME280;8151;47.824;12.092;2022-12-28T13:31:31;96579.69;;;9.49;71.40
16094;BME280;8151;47.824;12.092;2022-12-28T13:34:04;96569.81;;;9.51;70.77
16094;BME280;8151;47.824;12.092;2022-12-28T13:36:33;96574.50;;;9.65;70.42
16094;BME280;8151;47.824;12.092;2022-12-28T13:39:10;96566.00;;;9.79;69.45
16094;BME280;8151;47.824;12.092;2022-12-28T13:41:47;96563.19;;;9.81;69.59
16094;BME280;8151;47.824;12.092;2022-12-28T13:44:32;96556.91;;;9.82;69.29